Time;durP1;ratioP1;P1;durP2;ratioP2;P2;SDS_P1;SDS_P2;PMS_P1;PMS_P2;Temp;Humidity;BMP_temperature;BMP_pressure;BME280_temperature;BME280_humidity;BME280_pressure;Samples;Min_cycle;Max_cycle;Signal;HPM_P1;HPM_P2
2023/06/19 05:50:20;;;;;;;7.05;3.30;;;;;;;;;;10580498;27;20406;-85
2023/06/19 05:55:21;;;;;;;4.25;3.30;;;;;;;;;;10559081;28;20031;-85
2023/06/19 06:00:22;;;;;;;5.80;3.40;;;;;;;;;;10560327;28;20046;-85
2023/06/19 06:05:24;;;;;;;6.30;3.10;;;;;;;;;;10561000;28;20028;-86
2023/06/19 06:10:25;;;;;;;4.20;3.40;;;;;;;;;;10561158;28;20438;-86
2023/06/19 06:15:26;;;;;;;4.97;3.47;;;;;;;;;;10559639;28;20020;-85
2023/06/19 06:20:27;;;;;;;4.70;3.35;;;;;;;;;;10577800;28;20525;-86
2023/06/19 06:25:28;;;;;;;5.35;3.50;;;;;;;;;;10561799;28;20020;-85
2023/06/19 06:30:29;;;;;;;4.03;3.42;;;;;;;;;;10559488;28;20106;-86
2023/06/19 06:35:49;;;;;;;4.68;2.97;;;;;;;;;;10564968;28;20071;-85
2023/06/19 06:40:54;;;;;;;3.50;2.70;;;;;;;;;;10583324;28;20036;-86
2023/06/19 06:45:58;;;;;;;3.67;2.75;;;;;;;;;;10557862;28;20036;-85
2023/06/19 06:51:01;;;;;;;3.67;2.90;;;;;;;;;;10557322;28;20035;-85
2023/06/19 06:56:07;;;;;;;3.30;2.83;;;;;;;;;;10557974;28;20023;-85
2023/06/19 07:01:08;;;;;;;3.42;2.85;;;;;;;;;;10532074;28;20092;-85
2023/06/19 07:06:09;;;;;;;3.75;2.42;;;;;;;;;;10528029;28;20073;-85
2023/06/19 07:11:10;;;;;;;3.28;2.67;;;;;;;;;;10533863;28;20036;-85
2023/06/19 07:16:11;;;;;;;3.67;3.00;;;;;;;;;;10549166;28;20095;-88
2023/06/19 07:21:52;;;;;;;5.82;2.97;;;;;;;;;;10529861;28;20099;-86
2023/06/19 07:26:53;;;;;;;3.92;2.80;;;;;;;;;;10520811;28;20027;-85
2023/06/19 07:32:04;;;;;;;7.30;3.25;;;;;;;;;;10531548;28;20031;-85
2023/06/19 07:37:05;;;;;;;4.85;3.65;;;;;;;;;;10530308;28;20024;-86
2023/06/19 07:42:06;;;;;;;6.50;3.70;;;;;;;;;;10528999;28;20032;-87
2023/06/19 07:47:08;;;;;;;6.65;3.88;;;;;;;;;;10533313;28;20032;-88
2023/06/19 07:52:09;;;;;;;8.52;4.93;;;;;;;;;;10547331;28;20130;-86
2023/06/19 07:57:10;;;;;;;7.22;6.18;;;;;;;;;;10560970;28;20024;-85
2023/06/19 08:02:11;;;;;;;10.23;5.70;;;;;;;;;;10533588;28;20048;-85
2023/06/19 08:07:28;;;;;;;7.80;6.53;;;;;;;;;;10529723;28;20091;-86
2023/06/19 08:12:58;;;;;;;9.68;7.90;;;;;;;;;;10529472;28;20032;-85
2023/06/19 08:17:59;;;;;;;12.73;5.20;;;;;;;;;;10485422;28;20043;-86
2023/06/19 08:23:00;;;;;;;9.13;7.47;;;;;;;;;;10534360;28;20030;-85
2023/06/19 08:28:01;;;;;;;6.07;5.47;;;;;;;;;;10525991;28;20529;-86
2023/06/19 08:33:14;;;;;;;7.57;5.40;;;;;;;;;;10526272;28;20020;-86
2023/06/19 08:38:16;;;;;;;5.63;3.80;;;;;;;;;;10525191;28;20031;-85
2023/06/19 08:43:17;;;;;;;6.60;4.35;;;;;;;;;;10512523;28;20051;-85
2023/06/19 08:48:18;;;;;;;5.00;3.60;;;;;;;;;;10532610;28;20036;-86
2023/06/19 08:53:19;;;;;;;5.78;4.30;;;;;;;;;;10531890;28;20474;-86
2023/06/19 08:58:24;;;;;;;3.88;2.72;;;;;;;;;;10535009;28;20221;-86
2023/06/19 09:03:25;;;;;;;4.90;3.38;;;;;;;;;;10532781;28;20036;-86
2023/06/19 09:08:26;;;;;;;4.10;3.00;;;;;;;;;;10550248;28;20061;-86
2023/06/19 09:13:30;;;;;;;3.92;3.50;;;;;;;;;;10550710;28;20051;-86
2023/06/19 09:18:33;;;;;;;4.47;2.80;;;;;;;;;;10558868;28;20053;-84
2023/06/19 09:23:34;;;;;;;4.78;3.13;;;;;;;;;;10536865;28;20059;-84
2023/06/19 09:28:42;;;;;;;3.97;2.92;;;;;;;;;;10539372;28;20043;-81
2023/06/19 09:33:43;;;;;;;6.88;2.85;;;;;;;;;;10549074;28;20020;-84
2023/06/19 09:38:46;;;;;;;4.72;3.03;;;;;;;;;;10545356;28;20044;-85
2023/06/19 09:43:48;;;;;;;4.38;3.38;;;;;;;;;;10529819;28;20020;-85
2023/06/19 09:48:54;;;;;;;3.40;2.80;;;;;;;;;;10546714;28;20036;-85
2023/06/19 09:53:58;;;;;;;3.67;2.80;;;;;;;;;;10546888;28;20031;-85
2023/06/19 09:59:00;;;;;;;5.38;3.40;;;;;;;;;;10535917;28;20043;-85
2023/06/19 10:04:05;;;;;;;5.63;4.10;;;;;;;;;;10547946;28;20070;-85
2023/06/19 10:09:07;;;;;;;4.80;3.80;;;;;;;;;;10524793;28;20034;-84
2023/06/19 10:14:09;;;;;;;4.28;3.42;;;;;;;;;;10532674;28;20470;-83
2023/06/19 10:19:16;;;;;;;4.65;3.17;;;;;;;;;;10529912;28;20474;-84
2023/06/19 10:24:19;;;;;;;6.68;4.20;;;;;;;;;;10530153;28;20021;-85
2023/06/19 10:29:20;;;;;;;5.60;3.90;;;;;;;;;;10529805;28;20094;-84
2023/06/19 10:34:21;;;;;;;8.05;4.85;;;;;;;;;;10533207;28;20115;-84
2023/06/19 10:39:25;;;;;;;8.50;7.70;;;;;;;;;;10536300;28;20028;-84
2023/06/19 10:44:26;;;;;;;6.28;4.75;;;;;;;;;;10538480;28;20028;-84
2023/06/19 10:49:28;;;;;;;5.43;4.28;;;;;;;;;;10543077;28;20374;-84
2023/06/19 10:54:29;;;;;;;5.97;4.45;;;;;;;;;;10541736;28;20020;-85
2023/06/19 10:59:30;;;;;;;5.18;4.13;;;;;;;;;;10540124;28;20073;-84
2023/06/19 11:04:32;;;;;;;5.03;4.10;;;;;;;;;;10536836;28;20020;-84
2023/06/19 11:09:33;;;;;;;7.75;3.97;;;;;;;;;;10538338;28;20032;-85
2023/06/19 11:14:39;;;;;;;6.53;5.13;;;;;;;;;;10561040;28;20024;-84
2023/06/19 11:19:43;;;;;;;4.80;4.20;;;;;;;;;;10539332;28;20020;-84
2023/06/19 11:24:48;;;;;;;16.33;14.60;;;;;;;;;;10538438;28;20024;-84
2023/06/19 11:29:55;;;;;;;7.03;6.32;;;;;;;;;;10556733;28;20449;-84
2023/06/19 11:34:56;;;;;;;6.32;4.90;;;;;;;;;;10531219;28;20024;-85
2023/06/19 11:39:57;;;;;;;6.80;4.97;;;;;;;;;;10528939;28;20122;-85
2023/06/19 11:45:06;;;;;;;6.28;5.10;;;;;;;;;;10532483;28;20024;-84
2023/06/19 11:50:07;;;;;;;7.97;5.63;;;;;;;;;;10530864;28;20043;-85
2023/06/19 11:55:08;;;;;;;6.57;5.43;;;;;;;;;;10535723;28;20028;-85
2023/06/19 12:00:25;;;;;;;23.20;20.85;;;;;;;;;;10549224;22;20016;-85
2023/06/19 12:05:29;;;;;;;6.00;5.40;;;;;;;;;;10457681;28;20025;-85
2023/06/19 12:10:55;;;;;;;5.75;5.13;;;;;;;;;;10481953;28;20405;-86
2023/06/19 12:15:56;;;;;;;6.35;5.68;;;;;;;;;;10499649;28;20379;-85
2023/06/19 12:20:57;;;;;;;6.30;5.30;;;;;;;;;;10516419;28;20020;-85
2023/06/19 12:26:07;;;;;;;6.78;5.88;;;;;;;;;;10497000;28;20472;-85
2023/06/19 12:31:08;;;;;;;6.78;5.97;;;;;;;;;;10498390;28;20085;-86
2023/06/19 12:36:14;;;;;;;6.60;5.05;;;;;;;;;;10504949;28;20028;-86
2023/06/19 12:41:16;;;;;;;8.07;5.35;;;;;;;;;;10504617;28;20023;-85
2023/06/19 12:46:17;;;;;;;10.50;9.40;;;;;;;;;;10501666;28;20024;-85
2023/06/19 12:51:18;;;;;;;8.20;6.10;;;;;;;;;;10508284;28;20048;-86
2023/06/19 12:56:25;;;;;;;7.68;6.28;;;;;;;;;;10496848;28;20032;-86
2023/06/19 13:01:26;;;;;;;6.72;5.53;;;;;;;;;;10495113;28;20067;-84
2023/06/19 13:06:27;;;;;;;6.55;5.45;;;;;;;;;;10513773;28;20052;-83
2023/06/19 13:11:28;;;;;;;9.57;6.40;;;;;;;;;;10493023;28;20127;-82
2023/06/19 13:16:31;;;;;;;6.30;5.70;;;;;;;;;;10493253;28;20025;-83
2023/06/19 13:21:32;;;;;;;6.40;5.43;;;;;;;;;;10492666;28;20079;-83
2023/06/19 13:26:33;;;;;;;6.85;5.65;;;;;;;;;;10493898;28;20048;-83
2023/06/19 13:31:34;;;;;;;8.45;7.05;;;;;;;;;;10511452;28;20067;-82
2023/06/19 13:36:35;;;;;;;6.72;6.03;;;;;;;;;;10494696;28;20031;-83
2023/06/19 13:41:37;;;;;;;9.63;6.47;;;;;;;;;;10493719;28;20382;-83
2023/06/19 13:46:38;;;;;;;7.35;6.65;;;;;;;;;;10494003;28;20028;-83
2023/06/19 13:51:44;;;;;;;6.78;5.78;;;;;;;;;;10511933;28;20037;-83
2023/06/19 13:56:45;;;;;;;6.55;5.35;;;;;;;;;;10494275;28;20027;-84
2023/06/19 14:01:46;;;;;;;8.25;7.20;;;;;;;;;;10512501;28;20431;-84
2023/06/19 14:06:47;;;;;;;7.47;6.50;;;;;;;;;;10497006;28;20021;-84
2023/06/19 14:11:48;;;;;;;6.70;5.43;;;;;;;;;;10505287;28;20382;-84
2023/06/19 14:16:49;;;;;;;8.95;7.57;;;;;;;;;;10524618;28;20029;-84
2023/06/19 14:21:50;;;;;;;7.13;6.18;;;;;;;;;;10502856;28;20051;-84
2023/06/19 14:26:51;;;;;;;8.40;5.28;;;;;;;;;;10500501;28;20033;-85
2023/06/19 14:31:52;;;;;;;6.53;5.25;;;;;;;;;;10500855;28;20029;-84
2023/06/19 14:36:54;;;;;;;6.10;5.50;;;;;;;;;;10501333;28;20178;-84
2023/06/19 14:41:55;;;;;;;6.20;5.47;;;;;;;;;;10502070;28;20073;-83
2023/06/19 14:46:56;;;;;;;8.23;5.07;;;;;;;;;;10524071;28;20025;-85
2023/06/19 14:51:57;;;;;;;7.20;4.90;;;;;;;;;;10539647;28;20048;-84
2023/06/19 14:56:59;;;;;;;7.22;5.57;;;;;;;;;;10509122;28;20078;-84
2023/06/19 15:02:00;;;;;;;7.65;4.47;;;;;;;;;;10499997;28;20033;-84
2023/06/19 15:07:01;;;;;;;7.18;4.80;;;;;;;;;;10500598;28;20131;-84
2023/06/19 15:12:02;;;;;;;5.55;4.78;;;;;;;;;;10517564;28;20028;-84
2023/06/19 15:17:03;;;;;;;5.18;4.63;;;;;;;;;;10520168;28;20467;-84
2023/06/19 15:22:05;;;;;;;6.30;4.95;;;;;;;;;;10500231;28;20111;-84
2023/06/19 15:27:06;;;;;;;6.38;5.00;;;;;;;;;;10500493;28;20030;-84
2023/06/19 15:32:07;;;;;;;9.00;5.03;;;;;;;;;;10501843;28;20119;-84
2023/06/19 15:37:09;;;;;;;5.57;4.85;;;;;;;;;;10500932;28;20092;-82
2023/06/19 15:42:10;;;;;;;8.90;8.05;;;;;;;;;;10501853;28;20028;-83
2023/06/19 15:47:11;;;;;;;5.82;5.15;;;;;;;;;;10519960;28;20099;-83
2023/06/19 15:52:12;;;;;;;6.78;5.25;;;;;;;;;;10499054;28;20024;-83
2023/06/19 15:57:14;;;;;;;7.60;4.97;;;;;;;;;;10500618;28;20048;-83
2023/06/19 16:02:15;;;;;;;8.20;4.78;;;;;;;;;;10501075;28;20063;-83
2023/06/19 16:07:17;;;;;;;8.63;5.70;;;;;;;;;;10534325;28;20025;-82
2023/06/19 16:12:18;;;;;;;5.43;4.70;;;;;;;;;;10513582;28;20495;-83
2023/06/19 16:17:19;;;;;;;6.95;5.00;;;;;;;;;;10516428;28;20031;-83
2023/06/19 16:22:21;;;;;;;7.70;6.20;;;;;;;;;;10497980;28;20040;-85
2023/06/19 16:27:22;;;;;;;5.07;4.45;;;;;;;;;;10531197;28;20110;-86
2023/06/19 16:32:28;;;;;;;6.43;5.13;;;;;;;;;;10529583;28;20037;-85
2023/06/19 16:37:29;;;;;;;5.07;4.57;;;;;;;;;;10531575;28;20036;-85
2023/06/19 16:42:30;;;;;;;7.07;5.07;;;;;;;;;;10531382;28;20089;-85
2023/06/19 16:47:31;;;;;;;7.53;5.15;;;;;;;;;;10525152;28;20096;-85
2023/06/19 16:52:32;;;;;;;5.53;4.75;;;;;;;;;;10503234;28;20029;-85
2023/06/19 16:57:33;;;;;;;5.20;4.53;;;;;;;;;;10495108;28;20398;-85
2023/06/19 17:02:34;;;;;;;8.02;5.78;;;;;;;;;;10513019;28;20047;-85
2023/06/19 17:07:38;;;;;;;7.18;4.97;;;;;;;;;;10496381;28;20115;-85
2023/06/19 17:12:49;;;;;;;6.20;5.60;;;;;;;;;;10509531;28;20020;-85
2023/06/19 17:18:08;;;;;;;5.53;4.57;;;;;;;;;;10491642;28;20013;-86
2023/06/19 17:23:09;;;;;;;5.90;4.83;;;;;;;;;;10529279;28;20390;-85
2023/06/19 17:28:13;;;;;;;4.45;4.05;;;;;;;;;;10491900;28;20025;-85
2023/06/19 17:33:21;;;;;;;6.03;4.90;;;;;;;;;;10488207;28;20487;-85
2023/06/19 17:38:38;;;;;;;7.05;4.45;;;;;;;;;;10489845;28;20039;-86
2023/06/19 17:43:40;;;;;;;7.88;5.05;;;;;;;;;;10509536;28;20050;-86
2023/06/19 17:48:47;;;;;;;6.18;5.05;;;;;;;;;;10506225;28;20432;-86
2023/06/19 17:53:50;;;;;;;6.13;4.35;;;;;;;;;;10490073;28;20040;-86
2023/06/19 17:58:57;;;;;;;7.03;5.20;;;;;;;;;;10515371;28;20020;-85
2023/06/19 18:04:08;;;;;;;6.60;5.20;;;;;;;;;;10492287;28;20032;-87
2023/06/19 18:09:11;;;;;;;6.35;5.07;;;;;;;;;;10530814;28;20072;-84
2023/06/19 18:14:24;;;;;;;6.55;4.90;;;;;;;;;;10524457;28;20049;-88
2023/06/19 18:19:28;;;;;;;9.85;5.32;;;;;;;;;;10507771;28;20020;-88
2023/06/19 18:24:30;;;;;;;7.70;5.70;;;;;;;;;;10487279;28;20494;-87
2023/06/19 18:29:31;;;;;;;6.53;5.88;;;;;;;;;;10505300;28;20112;-88
2023/06/19 18:34:32;;;;;;;9.30;5.22;;;;;;;;;;10486552;28;20387;-87
2023/06/19 18:39:34;;;;;;;5.43;4.93;;;;;;;;;;10486535;28;20034;-88
2023/06/19 18:44:35;;;;;;;6.65;4.80;;;;;;;;;;10485137;28;20440;-87
2023/06/19 18:49:36;;;;;;;5.80;5.20;;;;;;;;;;10485426;28;20081;-87
2023/06/19 18:54:37;;;;;;;4.63;4.20;;;;;;;;;;10487373;28;20063;-87
2023/06/19 18:59:38;;;;;;;5.47;4.63;;;;;;;;;;10493201;28;20123;-87
2023/06/19 19:04:41;;;;;;;4.60;4.20;;;;;;;;;;10510058;28;20020;-88
2023/06/19 19:09:42;;;;;;;4.47;4.07;;;;;;;;;;10491047;28;20110;-87
2023/06/19 19:14:43;;;;;;;5.32;4.15;;;;;;;;;;10491917;28;20033;-86
